sensor_id;sensor_type;location;lat;lon;timestamp;P1;durP1;ratioP1;P2;durP2;ratioP2
21503;SDS011;10913;51.992;9.228;2023-06-19T00:00:50;7.68;;;6.97;;
21503;SDS011;10913;51.992;9.228;2023-06-19T00:03:15;6.70;;;6.10;;
21503;SDS011;10913;51.992;9.228;2023-06-19T00:05:40;7.07;;;6.38;;
21503;SDS011;10913;51.992;9.228;2023-06-19T00:08:06;7.35;;;6.75;;
21503;SDS011;10913;51.992;9.228;2023-06-19T00:10:32;6.70;;;6.03;;
21503;SDS011;10913;51.992;9.228;2023-06-19T00:12:57;7.10;;;6.40;;
21503;SDS011;10913;51.992;9.228;2023-06-19T00:15:23;6.88;;;6.18;;
21503;SDS011;10913;51.992;9.228;2023-06-19T00:17:48;7.32;;;6.63;;
21503;SDS011;10913;51.992;9.228;2023-06-19T00:20:13;7.10;;;6.40;;
21503;SDS011;10913;51.992;9.228;2023-06-19T00:22:39;6.88;;;6.28;;
21503;SDS011;10913;51.992;9.228;2023-06-19T00:25:05;7.45;;;6.75;;
21503;SDS011;10913;51.992;9.228;2023-06-19T00:27:31;7.20;;;6.50;;
21503;SDS011;10913;51.992;9.228;2023-06-19T00:29:56;7.18;;;6.53;;
21503;SDS011;10913;51.992;9.228;2023-06-19T00:32:27;7.40;;;6.70;;
21503;SDS011;10913;51.992;9.228;2023-06-19T00:34:53;7.63;;;6.82;;
21503;SDS011;10913;51.992;9.228;2023-06-19T00:37:19;7.45;;;6.75;;
21503;SDS011;10913;51.992;9.228;2023-06-19T00:39:44;6.72;;;6.22;;
21503;SDS011;10913;51.992;9.228;2023-06-19T00:42:09;7.80;;;7.03;;
21503;SDS011;10913;51.992;9.228;2023-06-19T00:44:35;7.13;;;6.43;;
21503;SDS011;10913;51.992;9.228;2023-06-19T00:47:01;6.50;;;6.00;;
21503;SDS011;10913;51.992;9.228;2023-06-19T00:49:28;7.68;;;6.93;;
21503;SDS011;10913;51.992;9.228;2023-06-19T00:51:55;7.55;;;6.85;;
21503;SDS011;10913;51.992;9.228;2023-06-19T00:54:21;7.30;;;6.60;;
21503;SDS011;10913;51.992;9.228;2023-06-19T00:56:46;7.35;;;6.75;;
21503;SDS011;10913;51.992;9.228;2023-06-19T00:59:16;7.38;;;6.63;;
21503;SDS011;10913;51.992;9.228;2023-06-19T01:01:45;7.50;;;6.80;;
21503;SDS011;10913;51.992;9.228;2023-06-19T01:04:12;7.72;;;6.93;;
21503;SDS011;10913;51.992;9.228;2023-06-19T01:06:50;7.40;;;6.70;;
21503;SDS011;10913;51.992;9.228;2023-06-19T01:09:23;8.23;;;7.43;;
21503;SDS011;10913;51.992;9.228;2023-06-19T01:11:56;7.28;;;6.68;;
21503;SDS011;10913;51.992;9.228;2023-06-19T01:14:28;7.63;;;6.93;;
21503;SDS011;10913;51.992;9.228;2023-06-19T01:17:00;8.15;;;7.40;;
21503;SDS011;10913;51.992;9.228;2023-06-19T01:19:27;7.63;;;6.90;;
21503;SDS011;10913;51.992;9.228;2023-06-19T01:21:53;7.65;;;6.95;;
21503;SDS011;10913;51.992;9.228;2023-06-19T01:24:19;7.55;;;6.95;;
21503;SDS011;10913;51.992;9.228;2023-06-19T01:26:44;7.93;;;7.22;;
21503;SDS011;10913;51.992;9.228;2023-06-19T01:29:11;7.80;;;7.00;;
21503;SDS011;10913;51.992;9.228;2023-06-19T01:36:42;8.57;;;7.35;;
21503;SDS011;10913;51.992;9.228;2023-06-19T01:39:08;7.43;;;6.72;;
21503;SDS011;10913;51.992;9.228;2023-06-19T01:41:34;7.38;;;6.75;;
21503;SDS011;10913;51.992;9.228;2023-06-19T01:44:01;8.13;;;7.32;;
21503;SDS011;10913;51.992;9.228;2023-06-19T01:46:28;7.82;;;7.13;;
21503;SDS011;10913;51.992;9.228;2023-06-19T01:48:53;8.10;;;7.40;;
21503;SDS011;10913;51.992;9.228;2023-06-19T01:51:19;7.68;;;6.97;;
21503;SDS011;10913;51.992;9.228;2023-06-19T01:53:44;8.27;;;7.47;;
21503;SDS011;10913;51.992;9.228;2023-06-19T01:56:09;8.18;;;7.47;;
21503;SDS011;10913;51.992;9.228;2023-06-19T01:58:35;7.82;;;7.13;;
21503;SDS011;10913;51.992;9.228;2023-06-19T02:01:00;7.38;;;6.78;;
21503;SDS011;10913;51.992;9.228;2023-06-19T02:03:26;8.40;;;7.60;;
21503;SDS011;10913;51.992;9.228;2023-06-19T02:05:51;7.70;;;6.95;;
21503;SDS011;10913;51.992;9.228;2023-06-19T02:08:16;8.02;;;7.20;;
21503;SDS011;10913;51.992;9.228;2023-06-19T02:10:42;8.18;;;7.45;;
21503;SDS011;10913;51.992;9.228;2023-06-19T02:13:07;8.20;;;7.50;;
21503;SDS011;10913;51.992;9.228;2023-06-19T02:15:32;8.13;;;7.35;;
21503;SDS011;10913;51.992;9.228;2023-06-19T02:17:59;8.02;;;7.32;;
21503;SDS011;10913;51.992;9.228;2023-06-19T02:20:24;8.05;;;7.35;;
21503;SDS011;10913;51.992;9.228;2023-06-19T02:22:50;8.50;;;7.70;;
21503;SDS011;10913;51.992;9.228;2023-06-19T02:25:16;8.50;;;7.70;;
21503;SDS011;10913;51.992;9.228;2023-06-19T02:27:41;8.18;;;7.47;;
21503;SDS011;10913;51.992;9.228;2023-06-19T02:30:07;7.85;;;7.15;;
21503;SDS011;10913;51.992;9.228;2023-06-19T02:32:32;8.23;;;7.43;;
21503;SDS011;10913;51.992;9.228;2023-06-19T02:34:58;8.90;;;8.00;;
21503;SDS011;10913;51.992;9.228;2023-06-19T02:37:23;7.75;;;7.05;;
21503;SDS011;10913;51.992;9.228;2023-06-19T02:39:49;7.85;;;7.15;;
21503;SDS011;10913;51.992;9.228;2023-06-19T02:42:14;8.27;;;7.53;;
21503;SDS011;10913;51.992;9.228;2023-06-19T02:44:40;7.57;;;6.97;;
21503;SDS011;10913;51.992;9.228;2023-06-19T02:47:05;7.50;;;6.88;;
21503;SDS011;10913;51.992;9.228;2023-06-19T02:49:31;8.20;;;7.40;;
21503;SDS011;10913;51.992;9.228;2023-06-19T02:51:56;7.78;;;7.07;;
21503;SDS011;10913;51.992;9.228;2023-06-19T02:54:22;7.30;;;6.60;;
21503;SDS011;10913;51.992;9.228;2023-06-19T02:56:47;7.95;;;7.25;;
21503;SDS011;10913;51.992;9.228;2023-06-19T02:59:13;8.00;;;7.30;;
21503;SDS011;10913;51.992;9.228;2023-06-19T03:01:38;7.57;;;6.93;;
21503;SDS011;10913;51.992;9.228;2023-06-19T03:04:04;7.40;;;6.70;;
21503;SDS011;10913;51.992;9.228;2023-06-19T03:06:29;7.70;;;7.00;;
21503;SDS011;10913;51.992;9.228;2023-06-19T03:08:55;7.75;;;7.05;;
21503;SDS011;10913;51.992;9.228;2023-06-19T03:11:21;7.68;;;6.97;;
21503;SDS011;10913;51.992;9.228;2023-06-19T03:13:47;7.28;;;6.65;;
21503;SDS011;10913;51.992;9.228;2023-06-19T03:16:16;7.22;;;6.57;;
21503;SDS011;10913;51.992;9.228;2023-06-19T03:18:43;7.95;;;7.22;;
21503;SDS011;10913;51.992;9.228;2023-06-19T03:21:12;7.60;;;6.75;;
21503;SDS011;10913;51.992;9.228;2023-06-19T03:23:38;7.78;;;7.07;;
21503;SDS011;10913;51.992;9.228;2023-06-19T03:26:03;7.70;;;7.00;;
21503;SDS011;10913;51.992;9.228;2023-06-19T03:28:29;7.80;;;7.10;;
21503;SDS011;10913;51.992;9.228;2023-06-19T03:30:54;7.78;;;6.97;;
21503;SDS011;10913;51.992;9.228;2023-06-19T03:33:20;7.78;;;7.07;;
21503;SDS011;10913;51.992;9.228;2023-06-19T03:35:45;8.57;;;7.13;;
21503;SDS011;10913;51.992;9.228;2023-06-19T03:38:11;8.80;;;7.03;;
21503;SDS011;10913;51.992;9.228;2023-06-19T03:40:36;8.68;;;7.78;;
21503;SDS011;10913;51.992;9.228;2023-06-19T03:43:01;8.38;;;7.57;;
21503;SDS011;10913;51.992;9.228;2023-06-19T03:45:27;8.60;;;7.80;;
21503;SDS011;10913;51.992;9.228;2023-06-19T03:47:52;7.80;;;7.10;;
21503;SDS011;10913;51.992;9.228;2023-06-19T03:50:18;7.80;;;7.10;;
21503;SDS011;10913;51.992;9.228;2023-06-19T03:52:43;8.57;;;7.70;;
21503;SDS011;10913;51.992;9.228;2023-06-19T03:55:08;9.02;;;8.13;;
21503;SDS011;10913;51.992;9.228;2023-06-19T03:57:34;8.85;;;8.02;;
21503;SDS011;10913;51.992;9.228;2023-06-19T03:59:59;9.23;;;7.45;;
21503;SDS011;10913;51.992;9.228;2023-06-19T04:02:25;8.40;;;7.60;;
21503;SDS011;10913;51.992;9.228;2023-06-19T04:04:50;8.68;;;7.82;;
21503;SDS011;10913;51.992;9.228;2023-06-19T04:07:16;7.88;;;7.05;;
21503;SDS011;10913;51.992;9.228;2023-06-19T04:09:41;8.30;;;7.47;;
21503;SDS011;10913;51.992;9.228;2023-06-19T04:12:07;8.50;;;7.72;;
21503;SDS011;10913;51.992;9.228;2023-06-19T04:14:33;8.55;;;7.75;;
21503;SDS011;10913;51.992;9.228;2023-06-19T04:16:59;8.50;;;7.70;;
21503;SDS011;10913;51.992;9.228;2023-06-19T04:19:24;9.13;;;8.20;;
21503;SDS011;10913;51.992;9.228;2023-06-19T04:21:49;8.55;;;7.65;;
21503;SDS011;10913;51.992;9.228;2023-06-19T04:24:15;7.93;;;7.22;;
21503;SDS011;10913;51.992;9.228;2023-06-19T04:26:40;8.20;;;7.40;;
21503;SDS011;10913;51.992;9.228;2023-06-19T04:29:07;8.50;;;7.63;;
21503;SDS011;10913;51.992;9.228;2023-06-19T04:31:32;8.38;;;7.57;;
21503;SDS011;10913;51.992;9.228;2023-06-19T04:33:58;8.75;;;7.88;;
21503;SDS011;10913;51.992;9.228;2023-06-19T04:36:23;8.55;;;7.75;;
21503;SDS011;10913;51.992;9.228;2023-06-19T04:38:49;9.07;;;8.23;;
21503;SDS011;10913;51.992;9.228;2023-06-19T04:41:17;8.93;;;8.02;;
21503;SDS011;10913;51.992;9.228;2023-06-19T04:43:42;9.27;;;8.32;;
21503;SDS011;10913;51.992;9.228;2023-06-19T04:46:08;8.50;;;7.78;;
21503;SDS011;10913;51.992;9.228;2023-06-19T04:48:33;8.70;;;7.90;;
21503;SDS011;10913;51.992;9.228;2023-06-19T04:51:01;9.82;;;8.82;;
21503;SDS011;10913;51.992;9.228;2023-06-19T04:53:26;8.88;;;8.00;;
21503;SDS011;10913;51.992;9.228;2023-06-19T04:55:52;8.50;;;7.70;;
21503;SDS011;10913;51.992;9.228;2023-06-19T04:58:20;8.65;;;7.82;;
21503;SDS011;10913;51.992;9.228;2023-06-19T05:00:46;7.97;;;7.28;;
21503;SDS011;10913;51.992;9.228;2023-06-19T05:03:16;8.57;;;7.70;;
21503;SDS011;10913;51.992;9.228;2023-06-19T05:05:43;9.50;;;8.45;;
21503;SDS011;10913;51.992;9.228;2023-06-19T05:08:08;9.18;;;8.27;;
21503;SDS011;10913;51.992;9.228;2023-06-19T05:10:34;8.73;;;7.95;;
21503;SDS011;10913;51.992;9.228;2023-06-19T05:12:59;9.50;;;8.32;;
21503;SDS011;10913;51.992;9.228;2023-06-19T05:15:25;8.55;;;7.75;;
21503;SDS011;10913;51.992;9.228;2023-06-19T05:17:51;8.80;;;8.00;;
21503;SDS011;10913;51.992;9.228;2023-06-19T05:20:17;9.00;;;8.18;;
21503;SDS011;10913;51.992;9.228;2023-06-19T05:22:42;9.18;;;8.23;;
21503;SDS011;10913;51.992;9.228;2023-06-19T05:25:08;9.68;;;8.48;;
21503;SDS011;10913;51.992;9.228;2023-06-19T05:27:34;9.20;;;7.95;;
21503;SDS011;10913;51.992;9.228;2023-06-19T05:29:59;8.23;;;7.43;;
21503;SDS011;10913;51.992;9.228;2023-06-19T05:32:24;8.85;;;8.05;;
21503;SDS011;10913;51.992;9.228;2023-06-19T05:34:50;9.15;;;8.35;;
21503;SDS011;10913;51.992;9.228;2023-06-19T05:37:16;8.77;;;7.97;;
21503;SDS011;10913;51.992;9.228;2023-06-19T05:39:41;9.05;;;8.15;;
21503;SDS011;10913;51.992;9.228;2023-06-19T05:42:07;9.00;;;8.20;;
21503;SDS011;10913;51.992;9.228;2023-06-19T05:44:32;8.40;;;7.60;;
21503;SDS011;10913;51.992;9.228;2023-06-19T05:46:58;9.07;;;8.27;;
21503;SDS011;10913;51.992;9.228;2023-06-19T05:49:23;8.82;;;8.02;;
21503;SDS011;10913;51.992;9.228;2023-06-19T05:51:48;9.20;;;8.30;;
21503;SDS011;10913;51.992;9.228;2023-06-19T05:54:14;8.85;;;8.02;;
21503;SDS011;10913;51.992;9.228;2023-06-19T05:56:39;9.02;;;8.18;;
21503;SDS011;10913;51.992;9.228;2023-06-19T05:59:05;8.32;;;7.63;;
21503;SDS011;10913;51.992;9.228;2023-06-19T06:01:30;8.48;;;7.75;;
21503;SDS011;10913;51.992;9.228;2023-06-19T06:03:56;8.68;;;7.88;;
21503;SDS011;10913;51.992;9.228;2023-06-19T06:06:22;8.65;;;7.95;;
21503;SDS011;10913;51.992;9.228;2023-06-19T06:08:48;8.63;;;7.85;;
21503;SDS011;10913;51.992;9.228;2023-06-19T06:11:14;8.77;;;7.97;;
21503;SDS011;10913;51.992;9.228;2023-06-19T06:13:39;9.10;;;8.30;;
21503;SDS011;10913;51.992;9.228;2023-06-19T06:16:05;8.85;;;8.05;;
21503;SDS011;10913;51.992;9.228;2023-06-19T06:18:30;8.35;;;7.65;;
21503;SDS011;10913;51.992;9.228;2023-06-19T06:20:55;8.20;;;7.50;;
21503;SDS011;10913;51.992;9.228;2023-06-19T06:23:21;8.25;;;7.55;;
21503;SDS011;10913;51.992;9.228;2023-06-19T06:25:46;8.50;;;7.70;;
21503;SDS011;10913;51.992;9.228;2023-06-19T06:28:11;8.52;;;7.72;;
21503;SDS011;10913;51.992;9.228;2023-06-19T06:30:37;8.05;;;7.30;;
21503;SDS011;10913;51.992;9.228;2023-06-19T06:33:03;8.15;;;7.38;;
21503;SDS011;10913;51.992;9.228;2023-06-19T06:35:29;8.48;;;7.68;;
21503;SDS011;10913;51.992;9.228;2023-06-19T06:37:54;8.85;;;7.95;;
21503;SDS011;10913;51.992;9.228;2023-06-19T06:40:20;8.07;;;7.40;;
21503;SDS011;10913;51.992;9.228;2023-06-19T06:42:45;8.25;;;7.55;;
21503;SDS011;10913;51.992;9.228;2023-06-19T06:45:12;7.55;;;6.85;;
21503;SDS011;10913;51.992;9.228;2023-06-19T06:47:37;6.38;;;5.63;;
21503;SDS011;10913;51.992;9.228;2023-06-19T06:50:05;6.13;;;5.60;;
21503;SDS011;10913;51.992;9.228;2023-06-19T06:52:31;5.50;;;5.03;;
21503;SDS011;10913;51.992;9.228;2023-06-19T06:54:57;5.43;;;5.03;;
21503;SDS011;10913;51.992;9.228;2023-06-19T06:57:22;5.78;;;5.18;;
21503;SDS011;10913;51.992;9.228;2023-06-19T06:59:47;5.30;;;4.90;;
21503;SDS011;10913;51.992;9.228;2023-06-19T07:02:13;5.28;;;4.80;;
21503;SDS011;10913;51.992;9.228;2023-06-19T07:04:38;4.82;;;4.43;;
21503;SDS011;10913;51.992;9.228;2023-06-19T07:07:03;4.70;;;4.30;;
21503;SDS011;10913;51.992;9.228;2023-06-19T07:09:31;4.78;;;4.38;;
21503;SDS011;10913;51.992;9.228;2023-06-19T07:11:56;4.93;;;4.47;;
21503;SDS011;10913;51.992;9.228;2023-06-19T07:14:21;5.20;;;4.75;;
21503;SDS011;10913;51.992;9.228;2023-06-19T07:16:47;5.15;;;4.68;;
21503;SDS011;10913;51.992;9.228;2023-06-19T07:19:13;4.55;;;4.15;;
21503;SDS011;10913;51.992;9.228;2023-06-19T07:21:38;4.80;;;4.40;;
21503;SDS011;10913;51.992;9.228;2023-06-19T07:24:05;5.28;;;4.88;;
21503;SDS011;10913;51.992;9.228;2023-06-19T07:26:30;5.15;;;4.75;;
21503;SDS011;10913;51.992;9.228;2023-06-19T07:28:56;4.93;;;4.53;;
21503;SDS011;10913;51.992;9.228;2023-06-19T07:31:22;5.75;;;5.15;;
21503;SDS011;10913;51.992;9.228;2023-06-19T07:33:47;4.80;;;4.40;;
21503;SDS011;10913;51.992;9.228;2023-06-19T07:36:13;5.75;;;5.05;;
21503;SDS011;10913;51.992;9.228;2023-06-19T07:38:42;4.72;;;4.30;;
21503;SDS011;10913;51.992;9.228;2023-06-19T07:41:08;8.38;;;5.45;;
21503;SDS011;10913;51.992;9.228;2023-06-19T07:43:35;5.80;;;5.25;;
21503;SDS011;10913;51.992;9.228;2023-06-19T07:46:00;5.28;;;4.78;;
21503;SDS011;10913;51.992;9.228;2023-06-19T07:48:26;5.82;;;5.32;;
21503;SDS011;10913;51.992;9.228;2023-06-19T07:50:52;6.60;;;5.90;;
21503;SDS011;10913;51.992;9.228;2023-06-19T07:53:18;5.78;;;5.28;;
21503;SDS011;10913;51.992;9.228;2023-06-19T07:55:44;5.88;;;5.32;;
21503;SDS011;10913;51.992;9.228;2023-06-19T07:58:09;5.70;;;5.20;;
21503;SDS011;10913;51.992;9.228;2023-06-19T08:00:34;5.78;;;5.18;;
21503;SDS011;10913;51.992;9.228;2023-06-19T08:03:00;6.60;;;6.00;;
21503;SDS011;10913;51.992;9.228;2023-06-19T08:05:26;5.85;;;5.35;;
21503;SDS011;10913;51.992;9.228;2023-06-19T08:07:51;6.05;;;5.47;;
21503;SDS011;10913;51.992;9.228;2023-06-19T08:10:16;5.55;;;4.95;;
21503;SDS011;10913;51.992;9.228;2023-06-19T08:12:42;6.13;;;5.53;;
21503;SDS011;10913;51.992;9.228;2023-06-19T08:15:09;5.25;;;4.75;;
21503;SDS011;10913;51.992;9.228;2023-06-19T08:17:35;5.50;;;5.00;;
21503;SDS011;10913;51.992;9.228;2023-06-19T08:20:01;6.57;;;5.10;;
21503;SDS011;10913;51.992;9.228;2023-06-19T08:22:28;5.78;;;5.05;;
21503;SDS011;10913;51.992;9.228;2023-06-19T08:24:54;5.70;;;5.20;;
21503;SDS011;10913;51.992;9.228;2023-06-19T08:27:19;5.25;;;4.85;;
21503;SDS011;10913;51.992;9.228;2023-06-19T08:29:44;5.90;;;5.35;;
21503;SDS011;10913;51.992;9.228;2023-06-19T08:32:10;6.22;;;5.63;;
21503;SDS011;10913;51.992;9.228;2023-06-19T08:34:35;5.90;;;5.40;;
21503;SDS011;10913;51.992;9.228;2023-06-19T08:37:01;5.60;;;5.10;;
21503;SDS011;10913;51.992;9.228;2023-06-19T08:39:27;5.40;;;4.90;;
21503;SDS011;10913;51.992;9.228;2023-06-19T08:41:52;5.97;;;5.40;;
21503;SDS011;10913;51.992;9.228;2023-06-19T08:44:20;6.47;;;5.25;;
21503;SDS011;10913;51.992;9.228;2023-06-19T08:46:45;6.35;;;5.75;;
21503;SDS011;10913;51.992;9.228;2023-06-19T08:49:11;6.80;;;6.10;;
21503;SDS011;10913;51.992;9.228;2023-06-19T08:51:37;6.72;;;6.13;;
21503;SDS011;10913;51.992;9.228;2023-06-19T08:54:04;5.60;;;5.20;;
21503;SDS011;10913;51.992;9.228;2023-06-19T08:56:30;6.18;;;5.68;;
21503;SDS011;10913;51.992;9.228;2023-06-19T08:59:18;7.50;;;6.80;;
21503;SDS011;10913;51.992;9.228;2023-06-19T09:01:50;6.88;;;5.88;;
21503;SDS011;10913;51.992;9.228;2023-06-19T09:04:23;6.15;;;5.65;;
21503;SDS011;10913;51.992;9.228;2023-06-19T09:09:18;5.40;;;4.90;;
21503;SDS011;10913;51.992;9.228;2023-06-19T09:17:02;5.28;;;4.88;;
21503;SDS011;10913;51.992;9.228;2023-06-19T09:19:29;5.43;;;4.20;;
21503;SDS011;10913;51.992;9.228;2023-06-19T09:22:01;4.78;;;4.38;;
21503;SDS011;10913;51.992;9.228;2023-06-19T09:27:33;4.60;;;4.20;;
21503;SDS011;10913;51.992;9.228;2023-06-19T09:29:56;4.53;;;4.13;;
21503;SDS011;10913;51.992;9.228;2023-06-19T09:34:49;4.60;;;3.53;;
21503;SDS011;10913;51.992;9.228;2023-06-19T09:37:17;3.63;;;3.30;;
21503;SDS011;10913;51.992;9.228;2023-06-19T09:39:49;3.10;;;2.90;;
21503;SDS011;10913;51.992;9.228;2023-06-19T09:42:18;4.18;;;2.70;;
21503;SDS011;10913;51.992;9.228;2023-06-19T09:44:49;3.00;;;2.80;;
21503;SDS011;10913;51.992;9.228;2023-06-19T09:47:21;4.05;;;3.70;;
21503;SDS011;10913;51.992;9.228;2023-06-19T09:49:53;4.53;;;3.80;;
21503;SDS011;10913;51.992;9.228;2023-06-19T09:52:20;4.22;;;3.83;;
21503;SDS011;10913;51.992;9.228;2023-06-19T09:54:50;3.83;;;3.53;;
21503;SDS011;10913;51.992;9.228;2023-06-19T09:57:16;4.03;;;3.72;;
21503;SDS011;10913;51.992;9.228;2023-06-19T09:59:43;4.13;;;3.83;;
21503;SDS011;10913;51.992;9.228;2023-06-19T10:02:16;4.40;;;4.00;;
21503;SDS011;10913;51.992;9.228;2023-06-19T10:04:46;4.82;;;4.13;;
21503;SDS011;10913;51.992;9.228;2023-06-19T10:07:20;4.57;;;4.18;;
21503;SDS011;10913;51.992;9.228;2023-06-19T10:12:36;4.30;;;3.97;;
21503;SDS011;10913;51.992;9.228;2023-06-19T10:17:42;3.47;;;3.17;;
21503;SDS011;10913;51.992;9.228;2023-06-19T10:20:18;2.78;;;2.58;;
21503;SDS011;10913;51.992;9.228;2023-06-19T10:22:55;2.72;;;2.53;;
21503;SDS011;10913;51.992;9.228;2023-06-19T10:25:27;3.45;;;2.42;;
21503;SDS011;10913;51.992;9.228;2023-06-19T10:27:54;2.80;;;2.60;;
21503;SDS011;10913;51.992;9.228;2023-06-19T10:30:20;2.80;;;2.60;;
21503;SDS011;10913;51.992;9.228;2023-06-19T10:32:46;2.33;;;2.20;;
21503;SDS011;10913;51.992;9.228;2023-06-19T10:35:12;2.15;;;2.05;;
21503;SDS011;10913;51.992;9.228;2023-06-19T10:37:38;2.10;;;2.00;;
21503;SDS011;10913;51.992;9.228;2023-06-19T10:40:05;2.33;;;2.13;;
21503;SDS011;10913;51.992;9.228;2023-06-19T10:42:34;2.78;;;2.13;;
21503;SDS011;10913;51.992;9.228;2023-06-19T10:45:02;2.65;;;2.45;;
21503;SDS011;10913;51.992;9.228;2023-06-19T10:47:28;3.03;;;2.42;;
21503;SDS011;10913;51.992;9.228;2023-06-19T10:49:54;2.50;;;2.30;;
21503;SDS011;10913;51.992;9.228;2023-06-19T10:52:19;2.55;;;2.20;;
21503;SDS011;10913;51.992;9.228;2023-06-19T10:54:45;2.55;;;2.35;;
21503;SDS011;10913;51.992;9.228;2023-06-19T10:57:11;2.17;;;2.08;;
21503;SDS011;10913;51.992;9.228;2023-06-19T10:59:38;2.25;;;2.10;;
21503;SDS011;10913;51.992;9.228;2023-06-19T11:02:05;2.10;;;2.00;;
21503;SDS011;10913;51.992;9.228;2023-06-19T11:04:30;2.20;;;2.10;;
21503;SDS011;10913;51.992;9.228;2023-06-19T11:06:56;2.38;;;2.17;;
21503;SDS011;10913;51.992;9.228;2023-06-19T11:09:21;2.50;;;2.30;;
21503;SDS011;10913;51.992;9.228;2023-06-19T11:11:47;2.30;;;2.13;;
21503;SDS011;10913;51.992;9.228;2023-06-19T11:14:14;2.20;;;2.10;;
21503;SDS011;10913;51.992;9.228;2023-06-19T11:16:41;2.00;;;1.80;;
21503;SDS011;10913;51.992;9.228;2023-06-19T11:19:08;2.58;;;2.00;;
21503;SDS011;10913;51.992;9.228;2023-06-19T11:21:38;1.90;;;1.80;;
21503;SDS011;10913;51.992;9.228;2023-06-19T11:24:04;2.50;;;2.15;;
21503;SDS011;10913;51.992;9.228;2023-06-19T11:26:44;2.55;;;2.20;;
21503;SDS011;10913;51.992;9.228;2023-06-19T11:29:15;2.10;;;1.90;;
21503;SDS011;10913;51.992;9.228;2023-06-19T11:31:51;2.00;;;1.90;;
21503;SDS011;10913;51.992;9.228;2023-06-19T11:34:19;2.33;;;2.13;;
21503;SDS011;10913;51.992;9.228;2023-06-19T11:36:45;2.75;;;1.92;;
21503;SDS011;10913;51.992;9.228;2023-06-19T11:39:14;2.17;;;1.98;;
21503;SDS011;10913;51.992;9.228;2023-06-19T11:41:41;2.10;;;2.00;;
21503;SDS011;10913;51.992;9.228;2023-06-19T11:44:08;2.20;;;2.03;;
21503;SDS011;10913;51.992;9.228;2023-06-19T11:46:37;3.53;;;2.25;;
21503;SDS011;10913;51.992;9.228;2023-06-19T11:49:12;2.15;;;1.85;;
21503;SDS011;10913;51.992;9.228;2023-06-19T11:51:37;2.13;;;2.03;;
21503;SDS011;10913;51.992;9.228;2023-06-19T11:54:05;2.03;;;1.92;;
21503;SDS011;10913;51.992;9.228;2023-06-19T11:56:31;2.13;;;2.03;;
21503;SDS011;10913;51.992;9.228;2023-06-19T11:58:56;2.97;;;2.35;;
21503;SDS011;10913;51.992;9.228;2023-06-19T12:01:22;2.25;;;2.15;;
21503;SDS011;10913;51.992;9.228;2023-06-19T12:03:47;2.35;;;1.90;;
21503;SDS011;10913;51.992;9.228;2023-06-19T12:06:13;2.30;;;2.10;;
21503;SDS011;10913;51.992;9.228;2023-06-19T12:08:38;2.10;;;1.95;;
21503;SDS011;10913;51.992;9.228;2023-06-19T12:11:03;3.17;;;2.42;;
21503;SDS011;10913;51.992;9.228;2023-06-19T12:13:33;2.10;;;2.00;;
21503;SDS011;10913;51.992;9.228;2023-06-19T12:15:58;2.47;;;2.33;;
21503;SDS011;10913;51.992;9.228;2023-06-19T12:18:23;2.50;;;1.90;;
21503;SDS011;10913;51.992;9.228;2023-06-19T12:20:49;2.15;;;1.98;;
21503;SDS011;10913;51.992;9.228;2023-06-19T12:23:14;3.17;;;2.22;;
21503;SDS011;10913;51.992;9.228;2023-06-19T12:25:39;2.08;;;1.90;;
21503;SDS011;10913;51.992;9.228;2023-06-19T12:28:05;2.88;;;2.10;;
21503;SDS011;10913;51.992;9.228;2023-06-19T12:30:33;2.08;;;1.98;;
21503;SDS011;10913;51.992;9.228;2023-06-19T12:32:58;2.35;;;2.20;;
21503;SDS011;10913;51.992;9.228;2023-06-19T12:35:24;2.35;;;2.10;;
21503;SDS011;10913;51.992;9.228;2023-06-19T12:37:51;2.42;;;2.17;;
21503;SDS011;10913;51.992;9.228;2023-06-19T12:40:17;2.38;;;2.13;;
21503;SDS011;10913;51.992;9.228;2023-06-19T12:42:42;2.40;;;2.20;;
21503;SDS011;10913;51.992;9.228;2023-06-19T12:45:08;3.75;;;2.20;;
21503;SDS011;10913;51.992;9.228;2023-06-19T12:47:34;2.75;;;2.55;;
21503;SDS011;10913;51.992;9.228;2023-06-19T12:50:00;2.42;;;2.20;;
21503;SDS011;10913;51.992;9.228;2023-06-19T12:52:25;2.92;;;2.50;;
21503;SDS011;10913;51.992;9.228;2023-06-19T12:54:51;2.97;;;2.60;;
21503;SDS011;10913;51.992;9.228;2023-06-19T12:57:16;2.80;;;2.60;;
21503;SDS011;10913;51.992;9.228;2023-06-19T12:59:42;3.03;;;2.72;;
21503;SDS011;10913;51.992;9.228;2023-06-19T13:02:07;3.15;;;2.70;;
21503;SDS011;10913;51.992;9.228;2023-06-19T13:04:32;2.50;;;2.30;;
21503;SDS011;10913;51.992;9.228;2023-06-19T13:06:58;2.67;;;2.20;;
21503;SDS011;10913;51.992;9.228;2023-06-19T13:09:23;2.70;;;2.20;;
21503;SDS011;10913;51.992;9.228;2023-06-19T13:11:49;2.60;;;2.40;;
21503;SDS011;10913;51.992;9.228;2023-06-19T13:14:15;2.85;;;2.65;;
21503;SDS011;10913;51.992;9.228;2023-06-19T13:16:40;3.15;;;2.83;;
21503;SDS011;10913;51.992;9.228;2023-06-19T13:19:05;2.65;;;2.47;;
21503;SDS011;10913;51.992;9.228;2023-06-19T13:21:31;3.38;;;2.75;;
21503;SDS011;10913;51.992;9.228;2023-06-19T13:23:56;2.60;;;2.40;;
21503;SDS011;10913;51.992;9.228;2023-06-19T13:26:22;2.50;;;2.30;;
21503;SDS011;10913;51.992;9.228;2023-06-19T13:28:47;2.10;;;2.00;;
21503;SDS011;10913;51.992;9.228;2023-06-19T13:31:13;2.30;;;2.10;;
21503;SDS011;10913;51.992;9.228;2023-06-19T13:33:38;2.70;;;2.05;;
21503;SDS011;10913;51.992;9.228;2023-06-19T13:36:03;2.88;;;2.13;;
21503;SDS011;10913;51.992;9.228;2023-06-19T13:38:29;1.92;;;1.83;;
21503;SDS011;10913;51.992;9.228;2023-06-19T13:40:55;2.20;;;2.10;;
21503;SDS011;10913;51.992;9.228;2023-06-19T13:43:21;3.97;;;2.05;;
21503;SDS011;10913;51.992;9.228;2023-06-19T13:45:48;2.28;;;2.00;;
21503;SDS011;10913;51.992;9.228;2023-06-19T13:48:14;2.28;;;2.08;;
21503;SDS011;10913;51.992;9.228;2023-06-19T13:50:39;2.08;;;1.98;;
21503;SDS011;10913;51.992;9.228;2023-06-19T13:53:04;2.22;;;2.13;;
21503;SDS011;10913;51.992;9.228;2023-06-19T13:55:30;2.58;;;2.38;;
21503;SDS011;10913;51.992;9.228;2023-06-19T13:57:55;2.30;;;2.20;;
21503;SDS011;10913;51.992;9.228;2023-06-19T14:00:20;2.10;;;2.00;;
21503;SDS011;10913;51.992;9.228;2023-06-19T14:02:46;2.28;;;2.08;;
21503;SDS011;10913;51.992;9.228;2023-06-19T14:05:11;3.40;;;2.15;;
21503;SDS011;10913;51.992;9.228;2023-06-19T14:07:40;2.08;;;1.98;;
21503;SDS011;10913;51.992;9.228;2023-06-19T14:10:06;2.65;;;2.45;;
21503;SDS011;10913;51.992;9.228;2023-06-19T14:12:31;2.38;;;2.00;;
21503;SDS011;10913;51.992;9.228;2023-06-19T14:14:57;2.80;;;2.30;;
21503;SDS011;10913;51.992;9.228;2023-06-19T14:17:22;2.35;;;2.20;;
21503;SDS011;10913;51.992;9.228;2023-06-19T14:19:48;3.22;;;2.13;;
21503;SDS011;10913;51.992;9.228;2023-06-19T14:22:15;3.15;;;2.47;;
21503;SDS011;10913;51.992;9.228;2023-06-19T14:24:41;3.17;;;2.40;;
21503;SDS011;10913;51.992;9.228;2023-06-19T14:27:06;2.60;;;2.40;;
21503;SDS011;10913;51.992;9.228;2023-06-19T14:29:32;2.70;;;2.50;;
21503;SDS011;10913;51.992;9.228;2023-06-19T14:31:57;2.90;;;2.70;;
21503;SDS011;10913;51.992;9.228;2023-06-19T14:34:23;3.33;;;2.60;;
21503;SDS011;10913;51.992;9.228;2023-06-19T14:36:48;2.90;;;2.60;;
21503;SDS011;10913;51.992;9.228;2023-06-19T14:39:13;2.88;;;2.67;;
21503;SDS011;10913;51.992;9.228;2023-06-19T14:41:39;2.72;;;2.53;;
21503;SDS011;10913;51.992;9.228;2023-06-19T14:44:05;3.40;;;2.45;;
21503;SDS011;10913;51.992;9.228;2023-06-19T14:46:31;2.80;;;2.60;;
21503;SDS011;10913;51.992;9.228;2023-06-19T14:48:57;2.67;;;2.40;;
21503;SDS011;10913;51.992;9.228;2023-06-19T14:51:26;2.25;;;2.15;;
21503;SDS011;10913;51.992;9.228;2023-06-19T14:53:52;2.90;;;2.55;;
21503;SDS011;10913;51.992;9.228;2023-06-19T14:56:17;2.78;;;2.53;;
21503;SDS011;10913;51.992;9.228;2023-06-19T14:58:42;4.18;;;2.60;;
21503;SDS011;10913;51.992;9.228;2023-06-19T15:01:08;2.78;;;2.58;;
21503;SDS011;10913;51.992;9.228;2023-06-19T15:03:34;2.80;;;2.60;;
21503;SDS011;10913;51.992;9.228;2023-06-19T15:05:59;2.50;;;2.30;;